createdAt,value
2023-04-22T00:01:55.114Z,566.72
2023-04-22T00:04:25.118Z,522.15
2023-04-22T00:06:53.621Z,537.45
2023-04-22T00:09:21.982Z,610.45
2023-04-22T00:11:50.479Z,574.28
2023-04-22T00:14:18.920Z,551.85
2023-04-22T00:16:47.320Z,565.17
2023-04-22T00:19:16.134Z,557.13
2023-04-22T00:21:45.776Z,564.90
2023-04-22T00:24:14.154Z,576.35
2023-04-22T00:26:42.525Z,566.13
2023-04-22T00:29:10.881Z,563.05
2023-04-22T00:31:39.422Z,595.47
2023-04-22T00:34:07.814Z,548.65
2023-04-22T00:36:36.191Z,608.78
2023-04-22T00:39:06.420Z,585.28
2023-04-22T00:41:34.840Z,578.85
2023-04-22T00:44:03.276Z,572.00
2023-04-22T00:46:31.899Z,573.30
2023-04-22T00:49:00.467Z,529.65
2023-04-22T00:51:28.923Z,559.20
2023-04-22T00:53:57.249Z,625.55
2023-04-22T00:56:27.594Z,525.22
2023-04-22T00:58:56.419Z,555.60
2023-04-22T01:01:25.114Z,541.28
2023-04-22T01:03:54.084Z,576.00
2023-04-22T01:06:22.958Z,638.88
2023-04-22T01:08:51.386Z,587.40
2023-04-22T01:11:19.743Z,586.22
2023-04-22T01:13:49.742Z,583.08
2023-04-22T01:16:18.236Z,584.45
2023-04-22T01:18:46.619Z,549.55
2023-04-22T01:21:15.003Z,635.08
2023-04-22T01:23:44.874Z,595.20
2023-04-22T01:26:13.492Z,567.42
2023-04-22T01:28:42.083Z,597.83
2023-04-22T01:31:10.910Z,627.33
2023-04-22T01:33:39.582Z,609.97
2023-04-22T01:36:09.789Z,609.60
2023-04-22T01:38:39.448Z,628.15
2023-04-22T01:41:09.615Z,603.38
2023-04-22T01:43:38.143Z,618.42
2023-04-22T01:46:07.205Z,668.72
2023-04-22T01:48:36.226Z,620.83
2023-04-22T01:51:04.845Z,677.03
2023-04-22T01:53:33.436Z,678.92
2023-04-22T01:56:01.855Z,587.85
2023-04-22T01:58:34.251Z,601.40
2023-04-22T02:01:02.887Z,623.63
2023-04-22T02:03:31.409Z,575.72
2023-04-22T02:05:59.891Z,548.88
2023-04-22T02:08:28.361Z,534.72
2023-04-22T02:10:56.704Z,582.58
2023-04-22T02:13:25.128Z,555.88
2023-04-22T02:15:55.189Z,550.90
2023-04-22T02:18:23.632Z,569.13
2023-04-22T02:20:52.262Z,539.55
2023-04-22T02:23:20.860Z,574.45
2023-04-22T02:25:52.460Z,536.92
2023-04-22T02:28:20.902Z,592.30
2023-04-22T02:30:49.452Z,579.88
2023-04-22T02:33:19.273Z,553.47
2023-04-22T02:35:47.822Z,578.75
2023-04-22T02:38:16.331Z,551.13
2023-04-22T02:40:45.499Z,559.03
2023-04-22T02:43:15.071Z,586.25
2023-04-22T02:45:43.940Z,559.33
2023-04-22T02:48:12.425Z,624.28
2023-04-22T02:50:42.429Z,521.15
2023-04-22T02:53:10.846Z,559.83
2023-04-22T02:55:40.312Z,577.67
2023-04-22T02:58:08.847Z,563.95
2023-04-22T03:00:37.326Z,541.83
2023-04-22T03:03:06.012Z,541.63
2023-04-22T03:05:34.458Z,574.35
2023-04-22T03:08:04.457Z,573.88
2023-04-22T03:10:33.302Z,520.83
2023-04-22T03:13:01.663Z,539.58
2023-04-22T03:15:30.573Z,596.03
2023-04-22T03:17:58.978Z,541.15
2023-04-22T03:20:27.405Z,523.65
2023-04-22T03:22:55.736Z,639.42
2023-04-22T03:25:25.640Z,684.85
2023-04-22T03:27:54.042Z,674.45
2023-04-22T03:30:22.524Z,564.65
2023-04-22T03:32:51.109Z,591.30
2023-04-22T03:35:19.693Z,570.10
2023-04-22T03:37:48.034Z,542.92
2023-04-22T03:40:16.981Z,609.60
2023-04-22T03:42:46.716Z,596.78
2023-04-22T03:45:15.263Z,555.72
2023-04-22T03:47:43.900Z,644.45
2023-04-22T03:50:13.066Z,673.92
2023-04-22T03:52:41.490Z,578.97
2023-04-22T03:55:10.922Z,640.63
2023-04-22T03:57:39.279Z,505.70
2023-04-22T04:00:12.997Z,593.35
2023-04-22T04:02:41.379Z,535.60
2023-04-22T04:05:11.391Z,624.60
2023-04-22T04:07:39.904Z,659.65
2023-04-22T04:10:09.462Z,510.13
2023-04-22T04:12:37.980Z,596.60
2023-04-22T04:15:09.010Z,652.38
2023-04-22T04:17:37.654Z,575.55
2023-04-22T04:20:07.167Z,578.75
2023-04-22T04:22:35.595Z,511.77
2023-04-22T04:25:04.111Z,585.70
2023-04-22T04:27:32.918Z,550.38
2023-04-22T04:30:01.302Z,552.22
2023-04-22T04:32:34.400Z,519.72
2023-04-22T04:35:03.196Z,496.25
2023-04-22T04:37:31.587Z,632.67
2023-04-22T04:40:00.347Z,538.30
2023-04-22T04:42:30.502Z,542.70
2023-04-22T04:44:59.479Z,501.25
2023-04-22T04:47:28.538Z,513.60
2023-04-22T04:49:58.817Z,512.63
2023-04-22T04:52:27.184Z,550.53
2023-04-22T04:54:55.565Z,575.00
2023-04-22T04:57:24.144Z,545.53
2023-04-22T04:59:52.498Z,509.35
2023-04-22T05:02:21.201Z,630.65
2023-04-22T05:04:49.999Z,555.90
2023-04-22T05:07:19.984Z,536.33
2023-04-22T05:09:48.620Z,482.95
2023-04-22T05:12:17.022Z,511.20
2023-04-22T05:14:46.707Z,541.38
2023-04-22T05:17:15.415Z,508.95
2023-04-22T05:19:43.881Z,556.00
2023-04-22T05:22:12.396Z,511.27
2023-04-22T05:24:42.298Z,596.92
2023-04-22T05:27:10.763Z,521.65
2023-04-22T05:29:39.398Z,671.72
2023-04-22T05:32:09.053Z,560.15
2023-04-22T05:34:37.761Z,587.53
2023-04-22T05:37:06.307Z,540.53
2023-04-22T05:39:34.677Z,616.88
2023-04-22T05:42:04.604Z,610.90
2023-04-22T05:44:33.045Z,577.78
2023-04-22T05:47:01.390Z,620.45
2023-04-22T05:49:29.842Z,589.78
2023-04-22T05:51:58.197Z,657.45
2023-04-22T05:54:27.168Z,633.85
2023-04-22T05:56:55.893Z,655.08
2023-04-22T05:59:26.536Z,691.72
2023-04-22T06:01:55.165Z,683.95
2023-04-22T06:04:24.439Z,746.50
2023-04-22T06:06:54.427Z,725.05
2023-04-22T06:09:23.240Z,737.25
2023-04-22T06:11:51.842Z,790.10
2023-04-22T06:14:20.536Z,717.03
2023-04-22T06:16:53.062Z,708.83
2023-04-22T06:19:21.574Z,693.60
2023-04-22T06:21:50.129Z,695.92
2023-04-22T06:24:18.723Z,664.90
2023-04-22T06:26:55.303Z,599.40
2023-04-22T06:29:24.157Z,563.53
2023-04-22T06:31:59.745Z,606.92
2023-04-22T06:34:28.177Z,599.85
2023-04-22T06:36:56.543Z,588.22
2023-04-22T06:39:24.949Z,643.95
2023-04-22T06:41:53.396Z,548.13
2023-04-22T06:44:21.782Z,591.83
2023-04-22T06:46:50.271Z,618.72
2023-04-22T06:49:20.240Z,624.13
2023-04-22T06:51:48.597Z,617.88
2023-04-22T06:54:17.394Z,604.10
2023-04-22T06:56:49.088Z,606.38
2023-04-22T06:59:18.043Z,611.80
2023-04-22T07:01:46.405Z,615.10
2023-04-22T07:04:14.882Z,637.92
2023-04-22T07:06:44.991Z,629.90
2023-04-22T07:09:13.332Z,710.17
2023-04-22T07:11:41.668Z,619.40
2023-04-22T07:14:10.466Z,559.97
2023-04-22T07:16:39.421Z,607.25
2023-04-22T07:19:08.922Z,663.47
2023-04-22T07:21:37.209Z,755.20
2023-04-22T07:24:11.836Z,557.22
2023-04-22T07:26:41.039Z,585.55
2023-04-22T07:29:09.569Z,628.78
2023-04-22T07:31:38.778Z,523.53
2023-04-22T07:34:07.535Z,566.67
2023-04-22T07:36:36.050Z,554.47
2023-04-22T07:39:40.638Z,555.53
2023-04-22T07:42:11.698Z,507.02
2023-04-22T07:44:40.525Z,526.22
2023-04-22T07:47:11.023Z,533.70
2023-04-22T07:49:39.598Z,538.75
2023-04-22T07:52:08.176Z,527.65
2023-04-22T07:54:38.077Z,584.67
2023-04-22T07:57:55.536Z,539.88
2023-04-22T08:00:37.484Z,532.85
2023-04-22T08:03:07.060Z,512.63
2023-04-22T08:05:35.699Z,510.52
2023-04-22T08:08:04.062Z,519.45
2023-04-22T08:10:34.115Z,488.80
2023-04-22T08:13:02.747Z,511.23
2023-04-22T08:15:31.285Z,509.52
2023-04-22T08:17:59.784Z,504.20
2023-04-22T08:20:28.376Z,660.15
2023-04-22T08:23:00.394Z,506.55
2023-04-22T08:26:23.109Z,561.25
2023-04-22T08:28:53.009Z,546.97
2023-04-22T08:31:21.630Z,539.17
2023-04-22T08:33:50.769Z,628.13
2023-04-22T08:36:21.918Z,544.70
2023-04-22T08:38:50.655Z,618.22
2023-04-22T08:41:19.921Z,681.95
2023-04-22T08:43:49.332Z,638.03
2023-04-22T08:46:21.074Z,507.63
2023-04-22T08:48:50.339Z,533.97
2023-04-22T08:51:19.707Z,590.88
2023-04-22T08:53:48.555Z,542.50
2023-04-22T08:56:17.225Z,586.22
2023-04-22T08:58:46.540Z,550.58
2023-04-22T09:01:21.905Z,622.05
2023-04-22T09:03:52.539Z,521.70
2023-04-22T09:06:21.654Z,528.33
2023-04-22T09:08:50.589Z,523.17
2023-04-22T09:11:19.768Z,521.08
2023-04-22T09:13:48.634Z,570.03
2023-04-22T09:16:16.966Z,534.03
2023-04-22T09:18:46.999Z,503.75
2023-04-22T09:21:15.648Z,615.25
2023-04-22T09:23:49.124Z,526.05
2023-04-22T09:26:20.625Z,530.17
2023-04-22T09:28:53.141Z,548.72
2023-04-22T09:31:22.471Z,535.55
2023-04-22T09:33:54.744Z,533.00
2023-04-22T09:36:28.397Z,507.85
2023-04-22T09:38:58.592Z,529.28
2023-04-22T09:41:30.616Z,675.60
2023-04-22T09:44:00.387Z,630.75
2023-04-22T09:46:29.913Z,605.15
2023-04-22T09:49:00.540Z,542.80
2023-04-22T09:51:29.759Z,537.63
2023-04-22T09:54:04.216Z,530.35
2023-04-22T09:56:48.065Z,527.13
2023-04-22T09:59:20.935Z,531.00
2023-04-22T10:01:49.450Z,547.83
2023-04-22T10:04:21.535Z,552.20
2023-04-22T10:06:51.177Z,564.83
2023-04-22T10:09:21.435Z,556.47
2023-04-22T10:11:50.571Z,568.40
2023-04-22T10:14:19.717Z,563.95
2023-04-22T10:16:49.510Z,525.15
2023-04-22T10:19:23.045Z,543.35
2023-04-22T10:21:55.629Z,552.22
2023-04-22T10:24:26.100Z,563.03
2023-04-22T10:26:57.738Z,559.38
2023-04-22T10:29:27.518Z,560.80
2023-04-22T10:31:58.358Z,620.00
2023-04-22T10:34:28.115Z,583.83
2023-04-22T10:37:01.869Z,595.20
2023-04-22T10:39:30.841Z,666.53
2023-04-22T10:42:09.939Z,570.70
2023-04-22T10:44:49.204Z,570.65
2023-04-22T10:47:28.917Z,575.58
2023-04-22T10:50:21.185Z,585.97
2023-04-22T10:52:52.043Z,614.60
2023-04-22T10:55:21.370Z,581.33
2023-04-22T10:57:51.377Z,560.88
2023-04-22T11:00:25.596Z,640.60
2023-04-22T11:05:27.667Z,542.33
2023-04-22T11:07:59.762Z,515.97
2023-04-22T11:10:44.328Z,551.25
2023-04-22T11:13:14.994Z,549.30
2023-04-22T11:15:44.918Z,571.50
2023-04-22T11:18:18.310Z,614.55
2023-04-22T11:20:49.729Z,577.03
2023-04-22T11:23:24.223Z,620.53
2023-04-22T11:25:59.519Z,567.25
2023-04-22T11:28:28.171Z,560.35
2023-04-22T11:31:03.848Z,625.60
2023-04-22T11:33:34.050Z,560.80
2023-04-22T11:36:06.003Z,565.25
2023-04-22T11:38:34.439Z,610.03
2023-04-22T11:41:05.031Z,575.30
2023-04-22T11:43:33.520Z,586.28
2023-04-22T11:46:02.240Z,586.13
2023-04-22T11:48:30.689Z,560.38
2023-04-22T11:51:13.200Z,587.67
2023-04-22T11:53:48.239Z,554.70
2023-04-22T11:56:16.586Z,573.97
2023-04-22T11:58:44.963Z,575.05
2023-04-22T12:01:15.208Z,580.40
2023-04-22T12:03:43.812Z,616.30
2023-04-22T12:06:13.786Z,593.97
2023-04-22T12:08:44.332Z,565.03
2023-04-22T12:11:13.915Z,628.58
2023-04-22T12:13:43.824Z,584.30
2023-04-22T12:16:13.771Z,582.00
2023-04-22T12:18:49.102Z,569.45
2023-04-22T12:21:20.638Z,598.53
2023-04-22T12:23:50.550Z,534.75
2023-04-22T12:26:19.991Z,529.63
2023-04-22T12:28:49.775Z,525.03
2023-04-22T12:31:19.026Z,589.95
2023-04-22T12:33:48.423Z,551.85
2023-04-22T12:36:18.407Z,521.25
2023-04-22T12:38:46.834Z,521.80
2023-04-22T12:41:15.853Z,558.97
2023-04-22T12:43:44.394Z,524.58
2023-04-22T12:46:13.533Z,603.67
2023-04-22T12:48:42.878Z,527.28
2023-04-22T12:51:11.333Z,514.13
2023-04-22T12:53:41.024Z,500.92
2023-04-22T12:56:09.540Z,534.25
2023-04-22T12:58:37.933Z,573.15
2023-04-22T13:01:06.340Z,555.15
2023-04-22T13:03:34.914Z,577.30
2023-04-22T13:06:03.540Z,480.55
2023-04-22T13:08:32.173Z,513.13
2023-04-22T13:11:02.189Z,513.10
2023-04-22T13:13:30.580Z,479.15
2023-04-22T13:15:58.939Z,469.77
2023-04-22T13:18:27.325Z,467.90
2023-04-22T13:20:56.806Z,559.72
2023-04-22T13:23:26.649Z,467.00
2023-04-22T13:25:55.277Z,483.35
2023-04-22T13:28:24.992Z,460.80
2023-04-22T13:30:53.570Z,463.67
2023-04-22T13:33:21.911Z,494.77
2023-04-22T13:35:50.292Z,522.55
2023-04-22T13:38:18.629Z,462.45
2023-04-22T13:40:46.975Z,489.15
2023-04-22T13:43:15.366Z,458.42
2023-04-22T13:45:45.438Z,507.98
2023-04-22T13:48:13.852Z,505.42
2023-04-22T13:50:42.961Z,523.85
2023-04-22T13:53:11.854Z,481.27
2023-04-22T13:55:41.382Z,475.92
2023-04-22T13:58:09.811Z,480.13
2023-04-22T14:00:42.373Z,494.80
2023-04-22T14:03:12.767Z,495.15
2023-04-22T14:05:43.861Z,485.33
2023-04-22T14:08:16.789Z,521.33
2023-04-22T14:10:45.504Z,485.83
2023-04-22T14:13:14.093Z,524.10
2023-04-22T14:15:42.739Z,484.45
2023-04-22T14:18:13.176Z,481.42
2023-04-22T14:20:43.129Z,499.70
2023-04-22T14:23:11.603Z,477.52
2023-04-22T14:25:40.013Z,490.38
2023-04-22T14:28:08.456Z,512.47
2023-04-22T14:30:37.020Z,480.23
2023-04-22T14:33:07.064Z,486.60
2023-04-22T14:35:38.780Z,492.83
2023-04-22T14:40:52.068Z,490.23
2023-04-22T14:43:21.163Z,501.92
2023-04-22T14:45:55.729Z,500.73
2023-04-22T14:48:25.430Z,494.88
2023-04-22T14:50:56.044Z,504.00
2023-04-22T14:53:34.269Z,513.00
2023-04-22T14:56:26.923Z,474.75
2023-04-22T14:59:06.257Z,481.45
2023-04-22T15:02:29.284Z,647.95
2023-04-22T15:05:24.112Z,484.70
2023-04-22T15:11:21.563Z,477.98
2023-04-22T15:13:50.030Z,496.20
2023-04-22T15:16:40.270Z,523.63
2023-04-22T15:19:34.488Z,479.02
2023-04-22T15:26:26.465Z,498.33
2023-04-22T15:36:41.215Z,502.25
2023-04-22T15:39:12.375Z,518.13
2023-04-22T15:41:42.028Z,554.30
2023-04-22T15:44:12.796Z,523.47
2023-04-22T15:46:44.394Z,534.00
2023-04-22T15:49:13.783Z,554.35
2023-04-22T15:51:43.530Z,554.45
2023-04-22T15:54:12.983Z,536.50
2023-04-22T15:56:41.743Z,582.30
2023-04-22T15:59:10.082Z,518.92
2023-04-22T16:01:40.588Z,484.70
2023-04-22T16:04:09.372Z,595.78
2023-04-22T16:06:38.448Z,500.42
2023-04-22T16:09:08.244Z,617.50
2023-04-22T16:11:36.603Z,536.75
2023-04-22T16:14:04.990Z,532.05
2023-04-22T16:16:34.591Z,597.08
2023-04-22T16:19:03.864Z,556.10
2023-04-22T16:21:32.661Z,607.47
2023-04-22T16:24:01.485Z,525.70
2023-04-22T16:26:31.446Z,546.75
2023-04-22T16:29:01.963Z,567.97
2023-04-22T16:31:30.360Z,567.22
2023-04-22T16:33:59.486Z,566.25
2023-04-22T16:36:27.905Z,584.78
2023-04-22T16:39:10.231Z,570.95
2023-04-22T16:41:43.280Z,527.15
2023-04-22T16:44:11.744Z,571.95
2023-04-22T16:46:40.296Z,589.33
2023-04-22T16:49:10.453Z,582.58
2023-04-22T16:51:39.808Z,562.67
2023-04-22T16:54:08.358Z,600.40
2023-04-22T16:56:37.558Z,609.45
2023-04-22T16:59:07.322Z,702.10
2023-04-22T17:01:36.192Z,607.20
2023-04-22T17:04:04.790Z,611.40
2023-04-22T17:06:33.451Z,590.40
2023-04-22T17:09:01.880Z,637.20
2023-04-22T17:11:32.273Z,604.20
2023-04-22T17:14:00.965Z,602.17
2023-04-22T17:16:30.871Z,652.67
2023-04-22T17:18:59.262Z,598.22
2023-04-22T17:21:28.063Z,755.63
2023-04-22T17:27:54.748Z,641.88
2023-04-22T17:30:24.968Z,604.78
2023-04-22T17:37:09.349Z,671.60
2023-04-22T17:43:36.417Z,690.05
2023-04-22T17:46:05.221Z,673.33
2023-04-22T17:49:09.889Z,691.55
2023-04-22T17:51:46.432Z,661.20
2023-04-22T17:54:19.086Z,711.97
2023-04-22T17:56:51.592Z,723.70
2023-04-22T17:59:53.979Z,773.25
2023-04-22T18:02:25.927Z,729.63
2023-04-22T18:05:31.352Z,735.92
2023-04-22T18:08:39.021Z,709.72
2023-04-22T18:11:53.775Z,692.75
2023-04-22T18:15:20.720Z,713.93
2023-04-22T18:18:06.366Z,686.17
2023-04-22T18:24:09.373Z,804.70
2023-04-22T18:26:38.146Z,784.83
2023-04-22T18:29:19.918Z,652.10
2023-04-22T18:31:48.433Z,723.67
2023-04-22T18:34:18.207Z,634.15
2023-04-22T18:36:46.572Z,643.97
2023-04-22T18:39:14.966Z,622.08
2023-04-22T18:41:43.345Z,621.60
2023-04-22T18:44:11.896Z,651.65
2023-04-22T18:46:40.505Z,627.58
2023-04-22T18:49:08.849Z,633.35
2023-04-22T18:51:39.974Z,632.17
2023-04-22T18:54:10.339Z,627.72
2023-04-22T18:56:38.660Z,723.33
2023-04-22T18:59:06.972Z,682.88
2023-04-22T19:01:35.922Z,685.65
2023-04-22T19:04:04.562Z,649.58
2023-04-22T19:06:32.986Z,704.28
2023-04-22T19:09:04.625Z,629.40
2023-04-22T19:11:33.045Z,644.20
2023-04-22T19:14:03.042Z,677.63
2023-04-22T19:16:31.589Z,720.28
2023-04-22T19:19:00.001Z,727.55
2023-04-22T19:21:29.863Z,723.67
2023-04-22T19:23:58.759Z,679.60
2023-04-22T19:26:29.703Z,694.97
2023-04-22T19:28:58.182Z,721.85
2023-04-22T19:31:28.296Z,705.60
2023-04-22T19:33:56.696Z,711.20
2023-04-22T19:36:25.532Z,730.63
2023-04-22T19:38:53.929Z,736.88
2023-04-22T19:41:22.339Z,740.30
2023-04-22T19:43:52.105Z,694.20
2023-04-22T19:46:20.549Z,677.38
2023-04-22T19:48:52.189Z,609.58
2023-04-22T19:51:23.642Z,613.88
2023-04-22T19:54:53.926Z,598.00
2023-04-22T19:57:34.797Z,633.20
2023-04-22T20:01:08.673Z,625.83
2023-04-22T20:03:41.396Z,645.90
2023-04-22T20:06:10.581Z,686.92
2023-04-22T20:09:14.854Z,738.78
2023-04-22T20:12:30.674Z,725.65
2023-04-22T20:18:12.952Z,657.05
2023-04-22T20:21:04.158Z,669.15
2023-04-22T20:24:03.062Z,675.00
2023-04-22T20:27:06.634Z,648.03
2023-04-22T20:30:09.277Z,688.10
2023-04-22T20:33:09.053Z,616.95
2023-04-22T20:36:15.984Z,681.72
2023-04-22T20:39:11.556Z,614.28
2023-04-22T20:41:40.744Z,658.00
2023-04-22T20:44:14.160Z,658.97
2023-04-22T20:46:56.832Z,623.63
2023-04-22T20:49:52.386Z,677.97
2023-04-22T20:52:47.675Z,649.75
2023-04-22T20:55:59.893Z,639.75
2023-04-22T20:58:37.859Z,626.85
2023-04-22T21:01:57.474Z,663.30
2023-04-22T21:05:08.687Z,617.20
2023-04-22T21:08:28.187Z,586.08
2023-04-22T21:11:02.784Z,586.42
2023-04-22T21:14:00.012Z,656.40
2023-04-22T21:17:04.173Z,689.20
2023-04-22T21:19:56.944Z,659.90
2023-04-22T21:23:06.602Z,624.28
2023-04-22T21:25:37.352Z,624.58
2023-04-22T21:28:09.477Z,620.65
2023-04-22T21:30:38.483Z,593.47
2023-04-22T21:33:21.347Z,610.55
2023-04-22T21:35:50.476Z,625.10
2023-04-22T21:38:26.045Z,616.67
2023-04-22T21:41:01.291Z,642.30
2023-04-22T21:43:30.040Z,609.35
2023-04-22T21:46:01.188Z,597.38
2023-04-22T21:48:29.858Z,628.90
2023-04-22T21:51:01.465Z,587.50
2023-04-22T21:53:34.738Z,599.53
2023-04-22T21:56:05.258Z,629.88
2023-04-22T21:58:35.528Z,609.05
2023-04-22T22:01:09.051Z,598.83
2023-04-22T22:03:44.784Z,581.90
2023-04-22T22:06:14.114Z,662.15
2023-04-22T22:08:44.528Z,676.35
2023-04-22T22:11:30.790Z,653.58
2023-04-22T22:14:12.500Z,575.28
2023-04-22T22:16:41.311Z,628.47
2023-04-22T22:19:33.679Z,595.38
2023-04-22T22:22:34.213Z,585.97
2023-04-22T22:25:03.289Z,581.80
2023-04-22T22:27:37.794Z,605.70
2023-04-22T22:32:42.340Z,585.10
2023-04-22T22:35:20.815Z,573.17
2023-04-22T22:37:49.352Z,582.28
2023-04-22T22:40:17.749Z,603.92
2023-04-22T22:42:50.000Z,624.45
2023-04-22T22:45:19.176Z,595.72
2023-04-22T22:47:49.144Z,625.53
2023-04-22T22:50:23.191Z,636.38
2023-04-22T22:52:55.014Z,579.97
2023-04-22T22:55:23.986Z,640.25
2023-04-22T22:58:02.640Z,607.83
2023-04-22T23:00:37.604Z,581.90
2023-04-22T23:03:07.055Z,600.13
2023-04-22T23:05:35.679Z,613.63
2023-04-22T23:09:22.530Z,586.85
2023-04-22T23:15:24.917Z,564.90
2023-04-22T23:17:56.497Z,576.80
2023-04-22T23:20:25.772Z,558.65
2023-04-22T23:22:55.024Z,602.03
2023-04-22T23:25:23.939Z,597.60
2023-04-22T23:27:52.870Z,573.67
2023-04-22T23:30:23.878Z,645.50
2023-04-22T23:32:53.191Z,556.83
2023-04-22T23:35:22.332Z,626.28
2023-04-22T23:37:52.980Z,569.72
2023-04-22T23:40:21.429Z,587.28
2023-04-22T23:42:49.986Z,601.55
2023-04-22T23:45:18.693Z,608.15
2023-04-22T23:47:48.443Z,618.20
2023-04-22T23:50:19.090Z,631.08
2023-04-22T23:52:47.520Z,651.20
2023-04-22T23:55:16.849Z,617.15
2023-04-22T23:57:45.764Z,595.40
